createdAt,value
2022-08-19T00:01:52.843Z,25.04
2022-08-19T00:11:56.737Z,25.04
2022-08-19T00:21:58.499Z,24.86
2022-08-19T00:32:00.886Z,24.83
2022-08-19T00:42:03.117Z,24.66
2022-08-19T00:52:11.001Z,24.57
2022-08-19T01:02:17.790Z,24.37
2022-08-19T01:12:20.010Z,24.26
2022-08-19T01:22:31.445Z,24.22
2022-08-19T01:32:35.973Z,24.05
2022-08-19T01:42:38.040Z,23.90
2022-08-19T01:52:45.118Z,23.83
2022-08-19T02:02:46.873Z,23.60
2022-08-19T02:12:50.444Z,23.51
2022-08-19T02:22:55.380Z,23.33
2022-08-19T02:32:57.248Z,23.34
2022-08-19T02:42:59.087Z,23.11
2022-08-19T02:53:00.919Z,23.07
2022-08-19T03:03:02.745Z,23.12
2022-08-19T03:13:04.759Z,23.12
2022-08-19T03:23:06.830Z,23.15
2022-08-19T03:33:10.441Z,22.94
2022-08-19T03:43:20.278Z,22.76
2022-08-19T03:53:21.890Z,22.65
2022-08-19T04:03:25.315Z,22.59
2022-08-19T04:13:29.516Z,22.65
2022-08-19T04:23:32.192Z,22.77
2022-08-19T04:33:33.984Z,22.91
2022-08-19T04:43:40.866Z,23.07
2022-08-19T04:53:43.254Z,23.25
2022-08-19T05:03:46.127Z,23.51
2022-08-19T05:13:52.957Z,23.62
2022-08-19T05:24:06.040Z,23.95
2022-08-19T05:34:20.259Z,24.44
2022-08-19T05:44:27.143Z,24.71
2022-08-19T05:54:43.778Z,25.27
2022-08-19T06:36:34.878Z,27.16
2022-08-19T06:46:38.946Z,27.99
2022-08-19T06:56:42.905Z,28.31
2022-08-19T07:07:20.245Z,29.13
2022-08-19T07:17:23.325Z,29.81
2022-08-19T07:27:25.445Z,30.34
2022-08-19T07:37:33.188Z,30.64
2022-08-19T07:47:58.759Z,31.48
2022-08-19T07:58:03.897Z,31.64
2022-08-19T08:08:27.684Z,32.30
2022-08-19T08:18:50.487Z,33.03
2022-08-19T08:28:57.166Z,33.63
2022-08-19T08:38:59.074Z,34.36
2022-08-19T08:49:34.407Z,34.27
2022-08-19T08:59:42.676Z,34.11
2022-08-19T09:09:51.548Z,34.04
2022-08-19T09:20:09.471Z,35.51
2022-08-19T09:30:40.832Z,35.97
2022-08-19T09:40:43.032Z,36.66
2022-08-19T09:50:51.779Z,37.18
2022-08-19T10:00:55.421Z,37.44
2022-08-19T10:10:57.396Z,38.41
2022-08-19T10:21:11.644Z,39.73
2022-08-19T10:31:59.958Z,39.97
2022-08-19T10:41:50.017Z,39.90
2022-08-19T10:52:10.365Z,41.17
2022-08-19T11:02:21.818Z,41.74
2022-08-19T11:12:26.542Z,41.46
2022-08-19T11:22:35.331Z,42.38
2022-08-19T11:32:48.778Z,43.80
2022-08-19T11:42:57.287Z,44.45
2022-08-19T11:52:59.020Z,44.83
2022-08-19T12:03:04.742Z,44.43
2022-08-19T12:13:07.757Z,47.83
2022-08-19T12:23:10.902Z,44.16
2022-08-19T12:33:14.591Z,45.20
2022-08-19T12:43:17.766Z,45.51
2022-08-19T12:53:19.272Z,45.61
2022-08-19T13:03:30.043Z,45.84
2022-08-19T13:13:31.664Z,41.65
2022-08-19T13:23:35.353Z,45.82
2022-08-19T13:33:37.092Z,44.50
2022-08-19T13:43:40.963Z,41.53
2022-08-19T13:53:47.796Z,42.86
2022-08-19T14:03:50.328Z,42.41
2022-08-19T14:13:53.089Z,44.39
2022-08-19T14:23:55.129Z,39.20
2022-08-19T14:33:56.686Z,39.91
2022-08-19T14:43:58.368Z,38.93
2022-08-19T14:54:00.156Z,35.99
2022-08-19T15:04:02.606Z,33.20
2022-08-19T15:14:06.502Z,31.86
2022-08-19T15:24:10.220Z,31.88
2022-08-19T15:34:11.985Z,31.73
2022-08-19T15:44:16.574Z,31.41
2022-08-19T15:54:21.673Z,31.55
2022-08-19T16:04:42.011Z,31.24
2022-08-19T16:14:43.618Z,31.16
2022-08-19T16:24:45.327Z,31.14
2022-08-19T16:34:47.624Z,30.75
2022-08-19T16:44:49.430Z,30.33
2022-08-19T16:54:51.091Z,30.00
2022-08-19T17:04:58.092Z,29.76
2022-08-19T17:15:03.101Z,29.58
2022-08-19T17:25:05.128Z,29.30
2022-08-19T17:35:07.641Z,29.18
2022-08-19T17:45:11.240Z,28.94
2022-08-19T17:55:13.038Z,28.55
2022-08-19T18:05:14.873Z,28.31
2022-08-19T18:15:17.522Z,28.26
2022-08-19T18:25:24.425Z,28.22
2022-08-19T18:35:31.796Z,27.66
2022-08-19T18:45:53.149Z,27.20
2022-08-19T18:55:55.721Z,25.99
2022-08-19T19:05:57.635Z,25.47
2022-08-19T19:16:03.851Z,24.92
2022-08-19T19:26:10.978Z,25.23
2022-08-19T19:36:13.454Z,25.52
2022-08-19T19:46:16.476Z,25.64
2022-08-19T19:56:18.897Z,25.10
2022-08-19T20:06:22.854Z,25.01
2022-08-19T20:16:31.178Z,24.29
2022-08-19T20:26:33.870Z,23.15
2022-08-19T20:36:36.997Z,21.25
2022-08-19T20:46:38.869Z,20.35
2022-08-19T20:56:40.754Z,-147.84
2022-08-19T21:06:45.529Z,-147.84
2022-08-19T21:16:47.945Z,-147.84
2022-08-19T21:27:49.748Z,-147.84
2022-08-19T21:37:54.398Z,-147.84
2022-08-19T21:48:55.093Z,-147.84
2022-08-19T21:59:55.262Z,-147.84
2022-08-19T22:10:55.598Z,-147.84
2022-08-19T22:21:00.449Z,20.64
2022-08-19T22:31:04.963Z,20.74
2022-08-19T22:41:07.964Z,20.64
2022-08-19T22:51:30.795Z,20.59
2022-08-19T23:01:32.557Z,20.41
2022-08-19T23:11:39.872Z,20.42
2022-08-19T23:21:45.088Z,20.42
2022-08-19T23:31:49.667Z,20.30
2022-08-19T23:41:52.782Z,20.39
2022-08-19T23:51:55.673Z,20.37
